地図

経路データ

SID SEASON NUMBER BASIN SUBBASIN NAME ISO_TIME NATURE LAT LON WMO_WIND WMO_PRES WMO_AGENCY TRACK_TYPE DIST2LAND LANDFALL IFLAG USA_AGENCY USA_ATCF_ID USA_LAT USA_LON USA_RECORD USA_STATUS USA_WIND USA_PRES USA_SSHS USA_R34_NE USA_R34_SE USA_R34_SW USA_R34_NW USA_R50_NE USA_R50_SE USA_R50_SW USA_R50_NW USA_R64_NE USA_R64_SE USA_R64_SW USA_R64_NW USA_POCI USA_ROCI USA_RMW USA_EYE TOKYO_LAT TOKYO_LON TOKYO_GRADE TOKYO_WIND TOKYO_PRES TOKYO_R50_DIR TOKYO_R50_LONG TOKYO_R50_SHORT TOKYO_R30_DIR TOKYO_R30_LONG TOKYO_R30_SHORT TOKYO_LAND CMA_LAT CMA_LON CMA_CAT CMA_WIND CMA_PRES HKO_LAT HKO_LON HKO_CAT HKO_WIND HKO_PRES NEWDELHI_LAT NEWDELHI_LON NEWDELHI_GRADE NEWDELHI_WIND NEWDELHI_PRES NEWDELHI_CI NEWDELHI_DP NEWDELHI_POCI REUNION_LAT REUNION_LON REUNION_TYPE REUNION_WIND REUNION_PRES REUNION_TNUM REUNION_CI REUNION_RMW REUNION_R34_NE REUNION_R34_SE REUNION_R34_SW REUNION_R34_NW REUNION_R50_NE REUNION_R50_SE REUNION_R50_SW REUNION_R50_NW REUNION_R64_NE REUNION_R64_SE REUNION_R64_SW REUNION_R64_NW BOM_LAT BOM_LON BOM_TYPE BOM_WIND BOM_PRES BOM_TNUM BOM_CI BOM_RMW BOM_R34_NE BOM_R34_SE BOM_R34_SW BOM_R34_NW BOM_R50_NE BOM_R50_SE BOM_R50_SW BOM_R50_NW BOM_R64_NE BOM_R64_SE BOM_R64_SW BOM_R64_NW BOM_ROCI BOM_POCI BOM_EYE BOM_POS_METHOD BOM_PRES_METHOD NADI_LAT NADI_LON NADI_CAT NADI_WIND NADI_PRES WELLINGTON_LAT WELLINGTON_LON WELLINGTON_WIND WELLINGTON_PRES DS824_LAT DS824_LON DS824_STAGE DS824_WIND DS824_PRES TD9636_LAT TD9636_LON TD9636_STAGE TD9636_WIND TD9636_PRES TD9635_LAT TD9635_LON TD9635_WIND TD9635_PRES TD9635_ROCI NEUMANN_LAT NEUMANN_LON NEUMANN_CLASS NEUMANN_WIND NEUMANN_PRES MLC_LAT MLC_LON MLC_CLASS MLC_WIND MLC_PRES USA_GUST BOM_GUST BOM_GUST_PER REUNION_GUST REUNION_GUST_PER USA_SEAHGT USA_SEARAD_NE USA_SEARAD_SE USA_SEARAD_SW USA_SEARAD_NW STORM_SPEED STORM_DIR
1995189N11257 1995 30 EP MM BARBARA 1995-07-07 18:00:00 TS 11.3000 -103.200 30 1009 hurdat_epa main 708 705 O_____________ hurdat_epa EP031995 11.3000 -103.200 TD 30 1009 -1 16 285
1995189N11257 1995 30 EP MM BARBARA 1995-07-07 21:00:00 TS 11.5079 -104.010 main 720 720 P_____________ EP031995 11.5079 -104.010 TD 30 1008 -1 16 284
1995189N11257 1995 30 EP MM BARBARA 1995-07-08 00:00:00 TS 11.7000 -104.800 30 1008 hurdat_epa main 742 742 O_____________ hurdat_epa EP031995 11.7000 -104.800 TD 30 1008 -1 15 283
1995189N11257 1995 30 EP MM BARBARA 1995-07-08 03:00:00 TS 11.8649 -105.545 main 747 747 P_____________ EP031995 11.8649 -105.545 TD 32 1006 -1 14 282
1995189N11257 1995 30 EP MM BARBARA 1995-07-08 06:00:00 TS 12.0000 -106.200 35 1005 hurdat_epa main 762 760 O_____________ hurdat_epa EP031995 12.0000 -106.200 TS 35 1005 0 12 282
1995189N11257 1995 30 EP MM BARBARA 1995-07-08 09:00:00 TS 12.1147 -106.730 main 774 774 P_____________ EP031995 12.1147 -106.730 TS 35 1004 0 10 282
1995189N11257 1995 30 EP MM BARBARA 1995-07-08 12:00:00 TS 12.2000 -107.200 35 1004 hurdat_epa main 789 789 O_____________ hurdat_epa EP031995 12.2000 -107.200 TS 35 1004 0 10 278
1995189N11257 1995 30 EP MM BARBARA 1995-07-08 15:00:00 TS 12.2499 -107.708 main 818 808 P_____________ EP031995 12.2499 -107.708 TS 40 1002 0 10 276
1995189N11257 1995 30 EP MM BARBARA 1995-07-08 18:00:00 TS 12.3000 -108.200 45 1000 hurdat_epa main 839 839 O_____________ hurdat_epa EP031995 12.3000 -108.200 TS 45 1000 0 9 279
1995189N11257 1995 30 EP MM BARBARA 1995-07-08 21:00:00 TS 12.3923 -108.643 main 857 857 P_____________ EP031995 12.3923 -108.643 TS 50 999 0 9 283
1995189N11257 1995 30 EP MM BARBARA 1995-07-09 00:00:00 TS 12.5000 -109.100 55 998 hurdat_epa main 879 879 O_____________ hurdat_epa EP031995 12.5000 -109.100 TS 55 998 0 10 282
1995189N11257 1995 30 EP MM BARBARA 1995-07-09 03:00:00 TS 12.6001 -109.650 main 899 905 P_____________ EP031995 12.6001 -109.650 TS 60 996 0 11 281
1995189N11257 1995 30 EP MM BARBARA 1995-07-09 06:00:00 TS 12.7000 -110.200 65 995 hurdat_epa main 928 928 O_____________ hurdat_epa EP031995 12.7000 -110.200 HU 65 995 1 10 281
1995189N11257 1995 30 EP MM BARBARA 1995-07-09 09:00:00 TS 12.7998 -110.665 main 954 954 P_____________ EP031995 12.7998 -110.665 HU 67 992 1 9 283
1995189N11257 1995 30 EP MM BARBARA 1995-07-09 12:00:00 TS 12.9000 -111.100 70 990 hurdat_epa main 974 974 O_____________ hurdat_epa EP031995 12.9000 -111.100 HU 70 990 1 9 283
1995189N11257 1995 30 EP MM BARBARA 1995-07-09 15:00:00 TS 13.0000 -111.558 main 1004 1004 P_____________ EP031995 13.0000 -111.558 HU 75 985 1 9 283
1995189N11257 1995 30 EP MM BARBARA 1995-07-09 18:00:00 TS 13.1000 -112.000 80 980 hurdat_epa main 1027 1027 O_____________ hurdat_epa EP031995 13.1000 -112.000 HU 80 980 1 9 284
1995189N11257 1995 30 EP MM BARBARA 1995-07-09 21:00:00 TS 13.2074 -112.415 main 1049 1049 P_____________ EP031995 13.2074 -112.415 HU 85 975 2 8 284
1995189N11257 1995 30 EP MM BARBARA 1995-07-10 00:00:00 TS 13.3000 -112.800 90 970 hurdat_epa main 1073 1073 O_____________ hurdat_epa EP031995 13.3000 -112.800 HU 90 970 2 7 282
1995189N11257 1995 30 EP MM BARBARA 1995-07-10 03:00:00 TS 13.3574 -113.158 main 1097 1097 P_____________ EP031995 13.3574 -113.158 HU 97 965 3 7 278
1995189N11257 1995 30 EP MM BARBARA 1995-07-10 06:00:00 TS 13.4000 -113.500 105 960 hurdat_epa main 1122 1122 O_____________ hurdat_epa EP031995 13.4000 -113.500 HU 105 960 3 7 278
1995189N11257 1995 30 EP MM BARBARA 1995-07-10 09:00:00 TS 13.4500 -113.858 main 1139 1129 P_____________ EP031995 13.4500 -113.858 HU 110 954 3 7 278
1995189N11257 1995 30 EP MM BARBARA 1995-07-10 12:00:00 TS 13.5000 -114.200 115 948 hurdat_epa main 1141 1141 O_____________ hurdat_epa EP031995 13.5000 -114.200 HU 115 948 4 6 279
1995189N11257 1995 30 EP MM BARBARA 1995-07-10 15:00:00 TS 13.5500 -114.515 main 1153 1143 P_____________ EP031995 13.5500 -114.515 HU 115 947 4 6 280
1995189N11257 1995 30 EP MM BARBARA 1995-07-10 18:00:00 TS 13.6000 -114.800 115 946 hurdat_epa main 1157 1157 O_____________ hurdat_epa EP031995 13.6000 -114.800 HU 115 946 4 5 281
1995189N11257 1995 30 EP MM BARBARA 1995-07-10 21:00:00 TS 13.6499 -115.050 main 1171 1161 P_____________ EP031995 13.6499 -115.050 HU 115 945 4 5 282
1995189N11257 1995 30 EP MM BARBARA 1995-07-11 00:00:00 TS 13.7000 -115.300 115 945 hurdat_epa main 1171 1171 O_____________ hurdat_epa EP031995 13.7000 -115.300 HU 115 945 4 5 281
1995189N11257 1995 30 EP MM BARBARA 1995-07-11 03:00:00 TS 13.7500 -115.593 main 1186 1176 P_____________ EP031995 13.7500 -115.593 HU 115 945 4 6 280
1995189N11257 1995 30 EP MM BARBARA 1995-07-11 06:00:00 TS 13.8000 -115.900 115 945 hurdat_epa main 1192 1192 O_____________ hurdat_epa EP031995 13.8000 -115.900 HU 115 945 4 6 280
1995189N11257 1995 30 EP MM BARBARA 1995-07-11 09:00:00 TS 13.8500 -116.200 main 1209 1200 P_____________ EP031995 13.8500 -116.200 HU 107 946 3 6 280
1995189N11257 1995 30 EP MM BARBARA 1995-07-11 12:00:00 TS 13.9000 -116.500 100 947 hurdat_epa main 1217 1217 O_____________ hurdat_epa EP031995 13.9000 -116.500 HU 100 947 3 6 280
1995189N11257 1995 30 EP MM BARBARA 1995-07-11 15:00:00 TS 13.9499 -116.793 main 1235 1226 P_____________ EP031995 13.9499 -116.793 HU 100 948 3 6 280
1995189N11257 1995 30 EP MM BARBARA 1995-07-11 18:00:00 TS 14.0000 -117.100 100 950 hurdat_epa main 1245 1245 O_____________ hurdat_epa EP031995 14.0000 -117.100 HU 100 950 3 6 278
1995189N11257 1995 30 EP MM BARBARA 1995-07-11 21:00:00 TS 14.0424 -117.435 main 1264 1262 P_____________ EP031995 14.0424 -117.435 HU 100 952 3 7 278
1995189N11257 1995 30 EP MM BARBARA 1995-07-12 00:00:00 TS 14.1000 -117.800 100 955 hurdat_epa main 1282 1282 O_____________ hurdat_epa EP031995 14.1000 -117.800 HU 100 955 3 8 283
1995189N11257 1995 30 EP MM BARBARA 1995-07-12 03:00:00 TS 14.2075 -118.192 main 1301 1301 P_____________ EP031995 14.2075 -118.192 HU 100 957 3 8 284
1995189N11257 1995 30 EP MM BARBARA 1995-07-12 06:00:00 TS 14.3000 -118.600 100 960 hurdat_epa main 1320 1320 O_____________ hurdat_epa EP031995 14.3000 -118.600 HU 100 960 3 8 278
1995189N11257 1995 30 EP MM BARBARA 1995-07-12 09:00:00 TS 14.3149 -118.993 main 1350 1350 P_____________ EP031995 14.3149 -118.993 HU 100 962 3 8 270
1995189N11257 1995 30 EP MM BARBARA 1995-07-12 12:00:00 TS 14.3000 -119.400 100 965 hurdat_epa main 1380 1380 O_____________ hurdat_epa EP031995 14.3000 -119.400 HU 100 965 3 8 269
1995189N11257 1995 30 EP MM BARBARA 1995-07-12 15:00:00 TS 14.3074 -119.835 main 1410 1410 P_____________ EP031995 14.3074 -119.835 HU 100 967 3 9 270
1995189N11257 1995 30 EP MM BARBARA 1995-07-12 18:00:00 TS 14.3000 -120.300 100 969 hurdat_epa main 1445 1445 O_____________ hurdat_epa EP031995 14.3000 -120.300 HU 100 969 3 9 266
1995189N11257 1995 30 EP MM BARBARA 1995-07-12 21:00:00 TS 14.2499 -120.793 main 1485 1485 P_____________ EP031995 14.2499 -120.793 HU 105 959 3 10 264
1995189N11257 1995 30 EP MM BARBARA 1995-07-13 00:00:00 TS 14.2000 -121.300 110 950 hurdat_epa main 1518 1518 O_____________ hurdat_epa EP031995 14.2000 -121.300 HU 110 950 3 10 267
1995189N11257 1995 30 EP MM BARBARA 1995-07-13 03:00:00 TS 14.1999 -121.800 main 1552 1552 P_____________ EP031995 14.1999 -121.800 HU 112 949 3 10 270
1995189N11257 1995 30 EP MM BARBARA 1995-07-13 06:00:00 TS 14.2000 -122.300 115 948 hurdat_epa main 1586 1586 O_____________ hurdat_epa EP031995 14.2000 -122.300 HU 115 948 4 10 267
1995189N11257 1995 30 EP MM BARBARA 1995-07-13 09:00:00 TS 14.1423 -122.785 main 1630 1630 P_____________ EP031995 14.1423 -122.785 HU 115 947 4 10 264
1995189N11257 1995 30 EP MM BARBARA 1995-07-13 12:00:00 TS 14.1000 -123.300 115 947 hurdat_epa main 1667 1667 O_____________ hurdat_epa EP031995 14.1000 -123.300 HU 115 947 4 11 270
1995189N11257 1995 30 EP MM BARBARA 1995-07-13 15:00:00 TS 14.1350 -123.887 main 1711 1711 P_____________ EP031995 14.1350 -123.892 HU 117 945 4 12 275
1995189N11257 1995 30 EP MM BARBARA 1995-07-13 18:00:00 TS 14.2000 -124.500 120 943 hurdat_epa main 1749 1749 O_____________ hurdat_epa EP031995 14.2000 -124.500 HU 120 943 4 11 276
1995189N11257 1995 30 EP MM BARBARA 1995-07-13 21:00:00 TS 14.2497 -125.066 main 1796 1788 P_____________ EP031995 14.2496 -125.028 HU 120 941 4 11 275
1995189N11257 1995 30 EP MM BARBARA 1995-07-14 00:00:00 TS 14.3000 -125.667 120 940 hurdat_epa main 1836 1836 O_____________ hurdat_epa EP031995 14.3000 -125.600 HU 120 940 4 13 274
1995189N11257 1995 30 EP MM BARBARA 1995-07-14 03:00:00 TS 14.3350 -126.366 main 1892 1892 P_____________ EP031995 14.3351 -126.328 HU 120 940 4 14 274
1995189N11257 1995 30 EP MM BARBARA 1995-07-14 06:00:00 TS 14.4000 -127.100 120 941 hurdat_epa main 1943 1943 O_____________ hurdat_epa EP031995 14.4000 -127.100 HU 120 941 4 14 278
1995189N11257 1995 30 EP MM BARBARA 1995-07-14 09:00:00 TS 14.5347 -127.795 main 1982 1980 P_____________ EP031995 14.5347 -127.800 HU 117 942 4 14 282
1995189N11257 1995 30 EP MM BARBARA 1995-07-14 12:00:00 TS 14.7000 -128.500 115 943 hurdat_epa main 2014 2014 O_____________ hurdat_epa EP031995 14.7000 -128.500 HU 115 943 4 14 283
1995189N11257 1995 30 EP MM BARBARA 1995-07-14 15:00:00 TS 14.8574 -129.250 main 2048 2055 P_____________ EP031995 14.8574 -129.250 HU 112 946 3 15 282
1995189N11257 1995 30 EP MM BARBARA 1995-07-14 18:00:00 TS 15.0000 -130.000 110 950 hurdat_epa main 2100 2100 O_____________ hurdat_epa EP031995 15.0000 -130.000 HU 110 950 3 14 280
1995189N11257 1995 30 EP MM BARBARA 1995-07-14 21:00:00 TS 15.1071 -130.700 main 2146 2146 P_____________ EP031995 15.1071 -130.700 HU 105 955 3 14 278
1995189N11257 1995 30 EP MM BARBARA 1995-07-15 00:00:00 TS 15.2000 -131.400 100 960 hurdat_epa main 2193 2193 O_____________ hurdat_epa EP031995 15.2000 -131.400 HU 100 960 3 14 278
1995189N11257 1995 30 EP MM BARBARA 1995-07-15 03:00:00 TS 15.2999 -132.150 main 2250 2250 P_____________ EP031995 15.2999 -132.150 HU 95 965 2 15 278
1995189N11257 1995 30 EP MM BARBARA 1995-07-15 06:00:00 TS 15.4000 -132.900 90 970 hurdat_epa main 2300 2291 O_____________ hurdat_epa EP031995 15.4000 -132.900 HU 90 970 2 14 278
1995189N11257 1995 30 EP MM BARBARA 1995-07-15 09:00:00 TS 15.5073 -133.615 main 2291 2215 P_____________ EP031995 15.5073 -133.615 HU 82 975 1 14 278
1995189N11257 1995 30 EP MM BARBARA 1995-07-15 12:00:00 TS 15.6000 -134.300 75 980 hurdat_epa main 2215 2150 O_____________ hurdat_epa EP031995 15.6000 -134.300 HU 75 980 1 13 277
1995189N11257 1995 30 EP MM BARBARA 1995-07-15 15:00:00 TS 15.6649 -134.973 main 2140 2077 P_____________ EP031995 15.6649 -134.973 HU 70 984 1 13 275
1995189N11257 1995 30 EP MM BARBARA 1995-07-15 18:00:00 TS 15.7000 -135.600 65 988 hurdat_epa main 2077 2026 O_____________ hurdat_epa EP031995 15.7000 -135.600 HU 65 988 1 12 272
1995189N11257 1995 30 EP MM BARBARA 1995-07-15 21:00:00 TS 15.6998 -136.173 main 2015 1964 P_____________ EP031995 15.6998 -136.173 HU 60 991 0 11 270
1995189N11257 1995 30 EP MM BARBARA 1995-07-16 00:00:00 TS 15.7000 -136.700 55 995 hurdat_epa main 1964 1912 O_____________ hurdat_epa EP031995 15.7000 -136.700 TS 55 995 0 10 272
1995189N11257 1995 30 EP MM BARBARA 1995-07-16 03:00:00 TS 15.7424 -137.215 main 1912 1857 P_____________ EP031995 15.7424 -137.215 TS 50 997 0 10 276
1995189N11257 1995 30 EP MM BARBARA 1995-07-16 06:00:00 TS 15.8000 -137.700 45 1000 hurdat_epa main 1857 1816 O_____________ hurdat_epa EP031995 15.8000 -137.700 TS 45 1000 0 9 277
1995189N11257 1995 30 EP MM BARBARA 1995-07-16 09:00:00 TS 15.8499 -138.158 main 1806 1762 P_____________ EP031995 15.8499 -138.158 TS 42 1002 0 9 277
1995189N11257 1995 30 EP MM BARBARA 1995-07-16 12:00:00 TS 15.9000 -138.600 40 1005 hurdat_epa main 1762 1720 O_____________ hurdat_epa EP031995 15.9000 -138.600 TS 40 1005 0 9 276
1995189N11257 1995 30 EP MM BARBARA 1995-07-16 15:00:00 TS 15.9349 -139.043 main 1720 1666 P_____________ EP031995 15.9349 -139.043 TS 40 1005 0 9 277
1995189N11257 1995 30 EP MM BARBARA 1995-07-16 18:00:00 TS 16.0000 -139.500 40 1005 hurdat_epa main 1666 1611 O_____________ hurdat_epa EP031995 16.0000 -139.500 TS 40 1005 0 9 283
1995189N11257 1995 30 EP MM BARBARA 1995-07-16 21:00:00 TS 16.1453 -139.993 main 1611 1554 P_____________ EP031995 16.1424 -139.992 TS 35 1007 0 10 287
1995189N11257 1995 30 EP CP BARBARA 1995-07-17 00:00:00 TS 16.3000 -140.500 30 1009 hurdat_epa main 1554 1500 O_____________ hurdat_epa EP031995 16.3000 -140.500 TD 30 1009 -1 10 285
1995189N11257 1995 30 EP CP BARBARA 1995-07-17 03:00:00 TS 16.3999 -141.008 main 1500 1445 P_____________ EP031995 16.3999 -141.008 TD 30 1009 -1 10 282
1995189N11257 1995 30 EP CP BARBARA 1995-07-17 06:00:00 TS 16.5000 -141.500 30 1009 hurdat_epa main 1445 1401 O_____________ hurdat_epa EP031995 16.5000 -141.500 TD 30 1009 -1 9 285
1995189N11257 1995 30 EP CP BARBARA 1995-07-17 09:00:00 TS 16.6423 -141.950 main 1391 1344 P_____________ EP031995 16.6423 -141.950 TD 30 1009 -1 9 289
1995189N11257 1995 30 EP CP BARBARA 1995-07-17 12:00:00 TS 16.8000 -142.400 30 1009 hurdat_epa main 1344 1290 O_____________ hurdat_epa EP031995 16.8000 -142.400 TD 30 1009 -1 10 289
1995189N11257 1995 30 EP CP BARBARA 1995-07-17 15:00:00 TS 16.9574 -142.893 main 1287 1232 P_____________ EP031995 16.9574 -142.893 TD 30 1009 -1 10 287
1995189N11257 1995 30 EP CP BARBARA 1995-07-17 18:00:00 TS 17.1000 -143.400 30 1009 hurdat_epa main 1232 1178 O_____________ hurdat_epa EP031995 17.1000 -143.400 TD 30 1009 -1 10 285
1995189N11257 1995 30 EP CP BARBARA 1995-07-17 21:00:00 TS 17.2102 -143.902 main 1178 1124 P_____________ EP031995 17.2102 -143.902 TD 27 1009 -1 10 282
1995189N11257 1995 30 EP CP BARBARA 1995-07-18 00:00:00 TS 17.3000 -144.400 25 1009 hurdat_epa main 1124 O_____________ hurdat_epa EP031995 17.3000 -144.400 TD 25 1009 -1 10 281

IBTrACS Databaseについて

本データベースは、米国NOAAが公開する1842年以降の世界の熱帯低気圧のベストトラックデータアーカイブInternational Best Track Archive for Climate Stewardship (IBTrACS)を、ウェブで閲覧しやすい形式に変換したものです。

最終更新日:2021-10-21